Time;durP1;ratioP1;P1;durP2;ratioP2;P2;SDS_P1;SDS_P2;PMS_P1;PMS_P2;Temp;Humidity;BMP_temperature;BMP_pressure;BME280_temperature;BME280_humidity;BME280_pressure;Samples;Min_cycle;Max_cycle;Signal;HPM_P1;HPM_P2
2024/03/07 00:00:18;;;;;;;7.70;5.25;;;;;;;;;;5070473;28;20047;-59
2024/03/07 00:02:48;;;;;;;7.18;5.07;;;;;;;;;;5062588;28;20053;-61
2024/03/07 00:05:17;;;;;;;7.25;4.85;;;;;;;;;;5074092;28;20493;-60
2024/03/07 00:07:46;;;;;;;8.88;5.63;;;;;;;;;;5075266;28;20060;-58
2024/03/07 00:10:15;;;;;;;7.38;5.13;;;;;;;;;;5080037;28;20044;-60
2024/03/07 00:12:45;;;;;;;7.50;5.03;;;;;;;;;;5071972;28;20044;-59
2024/03/07 00:15:14;;;;;;;12.00;5.63;;;;;;;;;;5078540;28;20481;-59
2024/03/07 00:17:43;;;;;;;8.27;5.55;;;;;;;;;;5074609;28;20048;-59
2024/03/07 00:20:15;;;;;;;6.53;5.15;;;;;;;;;;5074355;28;20055;-57
2024/03/07 00:22:44;;;;;;;6.55;4.55;;;;;;;;;;5068878;28;20049;-59
2024/03/07 00:25:14;;;;;;;7.28;5.05;;;;;;;;;;5077755;28;20052;-61
2024/03/07 00:27:45;;;;;;;9.23;5.47;;;;;;;;;;5066763;28;20424;-60
2024/03/07 00:30:18;;;;;;;8.50;5.30;;;;;;;;;;5074301;28;20135;-58
2024/03/07 00:32:47;;;;;;;9.15;5.32;;;;;;;;;;5077697;28;20048;-58
2024/03/07 00:35:16;;;;;;;10.60;5.60;;;;;;;;;;5078425;28;20094;-58
2024/03/07 00:37:45;;;;;;;7.05;5.35;;;;;;;;;;5078616;28;20052;-60
2024/03/07 00:40:13;;;;;;;9.85;5.60;;;;;;;;;;5077925;28;20040;-59
2024/03/07 00:42:42;;;;;;;8.63;5.63;;;;;;;;;;5074736;28;20412;-59
2024/03/07 00:45:11;;;;;;;8.27;5.25;;;;;;;;;;5070455;28;20383;-58
2024/03/07 00:47:40;;;;;;;8.48;5.45;;;;;;;;;;5077537;28;20044;-57
2024/03/07 00:50:09;;;;;;;10.23;5.90;;;;;;;;;;5067010;28;20075;-59
2024/03/07 00:52:38;;;;;;;8.98;5.35;;;;;;;;;;5076540;28;20040;-60
2024/03/07 00:55:08;;;;;;;7.32;5.07;;;;;;;;;;5069438;28;20078;-59
2024/03/07 00:57:37;;;;;;;8.52;5.50;;;;;;;;;;5080018;28;20509;-58
2024/03/07 01:00:11;;;;;;;8.88;5.50;;;;;;;;;;5073135;28;20283;-58
2024/03/07 01:02:43;;;;;;;8.27;5.32;;;;;;;;;;5066496;28;20387;-60
2024/03/07 01:05:13;;;;;;;9.23;5.40;;;;;;;;;;5067643;28;20500;-61
2024/03/07 01:07:42;;;;;;;10.05;5.93;;;;;;;;;;5070790;28;20045;-61
2024/03/07 01:10:11;;;;;;;7.35;4.78;;;;;;;;;;5073069;28;20153;-58
2024/03/07 01:12:40;;;;;;;10.90;6.18;;;;;;;;;;5078256;28;20036;-58
2024/03/07 01:15:10;;;;;;;10.82;5.38;;;;;;;;;;5075450;28;20101;-59
2024/03/07 01:17:38;;;;;;;11.77;6.65;;;;;;;;;;5076938;28;20451;-58
2024/03/07 01:20:09;;;;;;;9.15;5.53;;;;;;;;;;5068153;28;20046;-58
2024/03/07 01:22:38;;;;;;;11.10;6.18;;;;;;;;;;5069293;28;20128;-58
2024/03/07 01:25:07;;;;;;;12.45;6.88;;;;;;;;;;5077824;28;20091;-60
2024/03/07 01:27:35;;;;;;;10.68;6.85;;;;;;;;;;5072462;28;20084;-59
2024/03/07 01:30:04;;;;;;;11.38;6.35;;;;;;;;;;5073255;28;20133;-62
2024/03/07 01:32:32;;;;;;;12.70;6.65;;;;;;;;;;5069740;28;20048;-58
2024/03/07 01:35:01;;;;;;;11.60;6.47;;;;;;;;;;5075692;28;20044;-58
2024/03/07 01:37:31;;;;;;;13.63;7.55;;;;;;;;;;5071075;28;20101;-60
2024/03/07 01:39:59;;;;;;;10.40;6.22;;;;;;;;;;5077846;28;20047;-61
2024/03/07 01:42:28;;;;;;;12.80;7.20;;;;;;;;;;5072325;28;20452;-61
2024/03/07 01:44:56;;;;;;;13.02;7.47;;;;;;;;;;5076902;28;21141;-58
2024/03/07 01:47:25;;;;;;;13.63;7.18;;;;;;;;;;5073422;28;20048;-59
2024/03/07 01:49:53;;;;;;;13.25;7.85;;;;;;;;;;5070621;28;20532;-59
2024/03/07 01:52:22;;;;;;;11.75;7.47;;;;;;;;;;5074806;28;20073;-59
2024/03/07 01:54:52;;;;;;;10.93;6.65;;;;;;;;;;5075014;28;20053;-60
2024/03/07 01:57:20;;;;;;;13.00;7.20;;;;;;;;;;5076923;28;20141;-58
2024/03/07 01:59:50;;;;;;;11.85;7.43;;;;;;;;;;5073820;28;20071;-60
2024/03/07 02:02:19;;;;;;;11.65;6.65;;;;;;;;;;5060814;28;20450;-59
2024/03/07 02:04:47;;;;;;;12.63;7.65;;;;;;;;;;5068473;28;20055;-59
2024/03/07 02:07:16;;;;;;;15.18;8.25;;;;;;;;;;5069485;28;20200;-61
2024/03/07 02:09:44;;;;;;;12.85;6.95;;;;;;;;;;5067233;28;20116;-57
2024/03/07 02:12:14;;;;;;;13.05;6.97;;;;;;;;;;5075577;28;20040;-58
2024/03/07 02:14:42;;;;;;;12.95;7.75;;;;;;;;;;5068675;28;20081;-59
2024/03/07 02:17:11;;;;;;;13.23;7.38;;;;;;;;;;5069507;28;20048;-59
2024/03/07 02:19:39;;;;;;;12.13;7.97;;;;;;;;;;5071676;28;20041;-61
2024/03/07 02:22:09;;;;;;;12.70;7.15;;;;;;;;;;5075143;28;20395;-59
2024/03/07 02:24:37;;;;;;;13.25;7.53;;;;;;;;;;5069432;28;20048;-58
2024/03/07 02:27:05;;;;;;;16.13;8.90;;;;;;;;;;5070525;28;20102;-59
2024/03/07 02:29:34;;;;;;;14.95;8.27;;;;;;;;;;5073485;28;20402;-58
2024/03/07 02:32:03;;;;;;;17.27;8.45;;;;;;;;;;5079012;28;20505;-59
2024/03/07 02:34:31;;;;;;;13.90;8.32;;;;;;;;;;5075240;28;20074;-59
2024/03/07 02:37:00;;;;;;;14.35;8.38;;;;;;;;;;5075034;28;20048;-58
2024/03/07 02:39:30;;;;;;;13.30;8.00;;;;;;;;;;5079054;28;20569;-59
2024/03/07 02:41:58;;;;;;;16.40;8.32;;;;;;;;;;5073651;28;20105;-59
2024/03/07 02:44:26;;;;;;;15.80;8.52;;;;;;;;;;5074533;28;20049;-62
2024/03/07 02:46:55;;;;;;;15.32;8.88;;;;;;;;;;5068638;28;20040;-59
2024/03/07 02:49:24;;;;;;;16.90;8.85;;;;;;;;;;5069815;28;20409;-61
2024/03/07 02:51:52;;;;;;;16.88;8.45;;;;;;;;;;5068899;28;20075;-60
2024/03/07 02:54:20;;;;;;;14.63;8.57;;;;;;;;;;5075221;28;20090;-59
2024/03/07 02:56:50;;;;;;;16.00;9.65;;;;;;;;;;5063505;28;20063;-61
2024/03/07 02:59:19;;;;;;;17.45;9.43;;;;;;;;;;5078892;28;20044;-59
2024/03/07 03:01:47;;;;;;;18.05;9.65;;;;;;;;;;5063722;28;20394;-59
2024/03/07 03:04:15;;;;;;;16.75;8.35;;;;;;;;;;5068048;28;20051;-60
2024/03/07 03:06:44;;;;;;;20.02;9.40;;;;;;;;;;5073258;28;20044;-60
2024/03/07 03:09:17;;;;;;;16.35;8.90;;;;;;;;;;5076988;28;20044;-61
2024/03/07 03:11:45;;;;;;;17.85;9.75;;;;;;;;;;5080178;28;20118;-58
2024/03/07 03:14:15;;;;;;;15.52;8.40;;;;;;;;;;5080497;28;20102;-58
2024/03/07 03:16:44;;;;;;;16.55;8.70;;;;;;;;;;5077137;28;20055;-61
2024/03/07 03:19:16;;;;;;;18.45;9.35;;;;;;;;;;5071744;28;20479;-60
2024/03/07 03:21:44;;;;;;;19.83;9.20;;;;;;;;;;5066879;28;20120;-57
2024/03/07 03:24:12;;;;;;;14.80;8.50;;;;;;;;;;5071666;28;20045;-60
2024/03/07 03:26:42;;;;;;;18.85;9.90;;;;;;;;;;5072907;28;20055;-60
2024/03/07 03:29:11;;;;;;;19.35;9.27;;;;;;;;;;5064276;28;20113;-59
2024/03/07 03:31:41;;;;;;;20.52;10.10;;;;;;;;;;5069481;28;20053;-60
2024/03/07 03:34:10;;;;;;;18.38;9.50;;;;;;;;;;5070326;28;20493;-60
2024/03/07 03:36:38;;;;;;;22.73;10.43;;;;;;;;;;5076968;28;20071;-59
2024/03/07 03:39:11;;;;;;;19.40;9.80;;;;;;;;;;5072210;28;20045;-59
2024/03/07 03:41:39;;;;;;;21.13;10.68;;;;;;;;;;5065501;28;20451;-59
2024/03/07 03:44:07;;;;;;;21.50;10.48;;;;;;;;;;5072407;28;20041;-59
2024/03/07 03:46:36;;;;;;;18.15;10.45;;;;;;;;;;5074645;28;20048;-59
2024/03/07 03:49:07;;;;;;;19.52;10.35;;;;;;;;;;5070845;28;20106;-60
2024/03/07 03:51:35;;;;;;;22.25;11.52;;;;;;;;;;5069932;28;20135;-58
2024/03/07 03:54:04;;;;;;;21.73;11.70;;;;;;;;;;5076559;28;20052;-59
2024/03/07 03:56:32;;;;;;;20.52;11.10;;;;;;;;;;5069245;28;20076;-60
2024/03/07 03:59:01;;;;;;;21.23;11.48;;;;;;;;;;5074970;28;20248;-60
2024/03/07 04:01:29;;;;;;;24.20;12.00;;;;;;;;;;5063028;28;21389;-58
2024/03/07 04:03:57;;;;;;;19.15;10.63;;;;;;;;;;5072135;28;20040;-60
2024/03/07 04:06:27;;;;;;;23.08;11.77;;;;;;;;;;5071054;28;20460;-60
2024/03/07 04:08:56;;;;;;;22.98;10.70;;;;;;;;;;5077141;28;20040;-58
2024/03/07 04:11:24;;;;;;;17.85;10.13;;;;;;;;;;5070534;28;20044;-59
2024/03/07 04:13:52;;;;;;;24.92;12.73;;;;;;;;;;5067797;28;20552;-59
2024/03/07 04:16:21;;;;;;;25.08;12.68;;;;;;;;;;5077488;28;20121;-58
2024/03/07 04:18:49;;;;;;;24.38;12.23;;;;;;;;;;5082097;28;20546;-61
2024/03/07 04:21:18;;;;;;;24.08;12.77;;;;;;;;;;5068661;28;20122;-60
2024/03/07 04:23:47;;;;;;;21.85;11.38;;;;;;;;;;5081889;28;20071;-60
2024/03/07 04:26:16;;;;;;;29.38;13.80;;;;;;;;;;5078586;28;20120;-60
2024/03/07 04:28:44;;;;;;;22.25;12.05;;;;;;;;;;5081624;28;20046;-59
2024/03/07 04:31:13;;;;;;;25.25;11.88;;;;;;;;;;5077200;28;20122;-59
2024/03/07 04:33:42;;;;;;;24.90;12.52;;;;;;;;;;5077683;28;20045;-60
2024/03/07 04:36:12;;;;;;;21.60;11.93;;;;;;;;;;5074467;28;20067;-60
2024/03/07 04:38:44;;;;;;;23.08;11.23;;;;;;;;;;5069536;28;20044;-60
2024/03/07 04:41:15;;;;;;;23.60;12.93;;;;;;;;;;5082759;28;20484;-59
2024/03/07 04:43:43;;;;;;;23.85;11.85;;;;;;;;;;5065558;28;20508;-59
2024/03/07 04:46:12;;;;;;;24.08;11.63;;;;;;;;;;5076552;28;20140;-59
2024/03/07 04:48:40;;;;;;;25.02;11.73;;;;;;;;;;5076707;28;20105;-59
2024/03/07 04:51:09;;;;;;;25.48;13.25;;;;;;;;;;5077015;28;20123;-62
2024/03/07 04:53:41;;;;;;;22.52;11.98;;;;;;;;;;5071302;28;20071;-58
2024/03/07 04:56:10;;;;;;;22.90;12.60;;;;;;;;;;5070716;28;20051;-59
2024/03/07 04:58:40;;;;;;;25.67;13.38;;;;;;;;;;5075720;28;20052;-60
2024/03/07 05:01:08;;;;;;;28.23;13.57;;;;;;;;;;5068221;28;20126;-59
2024/03/07 05:03:37;;;;;;;24.17;11.55;;;;;;;;;;5070148;28;20048;-58
2024/03/07 05:06:05;;;;;;;26.52;12.35;;;;;;;;;;5074843;28;20086;-61
2024/03/07 05:08:34;;;;;;;25.83;12.73;;;;;;;;;;5073040;28;20060;-59
2024/03/07 05:11:02;;;;;;;26.98;13.40;;;;;;;;;;5071493;28;20041;-59
2024/03/07 05:13:31;;;;;;;24.40;12.60;;;;;;;;;;5072784;28;20054;-61
2024/03/07 05:16:01;;;;;;;22.42;11.82;;;;;;;;;;5070508;28;20044;-59
2024/03/07 05:18:29;;;;;;;25.30;13.27;;;;;;;;;;5072895;28;20454;-59
2024/03/07 05:21:08;;;;;;;28.02;13.70;;;;;;;;;;5070394;28;20051;-63
2024/03/07 05:23:46;;;;;;;26.92;12.90;;;;;;;;;;5074302;28;20093;-59
2024/03/07 05:26:14;;;;;;;27.90;13.07;;;;;;;;;;5074594;28;20098;-59
2024/03/07 05:28:43;;;;;;;24.73;13.63;;;;;;;;;;5069956;28;20132;-59
2024/03/07 05:31:13;;;;;;;23.20;12.88;;;;;;;;;;5065092;28;20131;-61
2024/03/07 05:33:41;;;;;;;23.40;13.25;;;;;;;;;;5067984;28;20489;-60
2024/03/07 05:36:14;;;;;;;24.02;12.75;;;;;;;;;;5070186;28;20370;-59
2024/03/07 05:38:43;;;;;;;25.90;13.23;;;;;;;;;;5067107;28;20076;-61
2024/03/07 05:41:12;;;;;;;25.10;12.32;;;;;;;;;;5080520;28;20055;-59
2024/03/07 05:43:41;;;;;;;26.02;13.18;;;;;;;;;;5069949;28;20053;-58
2024/03/07 05:46:10;;;;;;;28.77;12.90;;;;;;;;;;5067935;28;20614;-61
2024/03/07 05:48:40;;;;;;;22.63;12.77;;;;;;;;;;5063800;28;20223;-59
2024/03/07 05:51:10;;;;;;;27.10;14.20;;;;;;;;;;5073926;28;20049;-61
2024/03/07 05:53:38;;;;;;;26.33;13.80;;;;;;;;;;5064302;28;20049;-59
2024/03/07 05:56:09;;;;;;;25.80;13.20;;;;;;;;;;5072808;28;20056;-60
2024/03/07 05:58:37;;;;;;;28.10;13.75;;;;;;;;;;5067261;28;20048;-59
2024/03/07 06:01:08;;;;;;;25.38;12.93;;;;;;;;;;5066957;28;20505;-61
2024/03/07 06:03:36;;;;;;;30.50;14.30;;;;;;;;;;5064643;28;20044;-59
2024/03/07 06:06:11;;;;;;;24.17;13.13;;;;;;;;;;5065704;28;20089;-59
2024/03/07 06:08:41;;;;;;;27.60;13.50;;;;;;;;;;5068600;28;20045;-60
2024/03/07 06:11:10;;;;;;;30.33;13.40;;;;;;;;;;5069106;28;20137;-59
2024/03/07 06:13:39;;;;;;;25.02;12.95;;;;;;;;;;5068231;28;20044;-60
2024/03/07 06:16:07;;;;;;;24.55;12.85;;;;;;;;;;5068160;28;20044;-60
2024/03/07 06:18:36;;;;;;;31.88;15.00;;;;;;;;;;5066176;28;20049;-60
2024/03/07 06:21:06;;;;;;;26.92;13.57;;;;;;;;;;5065775;28;20041;-61
2024/03/07 06:23:35;;;;;;;28.27;13.45;;;;;;;;;;5068688;28;20048;-61
2024/03/07 06:26:12;;;;;;;30.83;14.90;;;;;;;;;;5065295;28;20102;-61
2024/03/07 06:28:41;;;;;;;28.45;13.27;;;;;;;;;;5074774;28;20060;-60
2024/03/07 06:31:09;;;;;;;27.65;12.70;;;;;;;;;;5066395;28;20102;-61
2024/03/07 06:33:38;;;;;;;28.75;15.20;;;;;;;;;;5075424;28;20067;-62
2024/03/07 06:36:08;;;;;;;26.50;13.88;;;;;;;;;;5065867;28;20041;-62
2024/03/07 06:38:37;;;;;;;26.33;14.02;;;;;;;;;;5071184;28;20425;-60
2024/03/07 06:41:07;;;;;;;28.58;13.85;;;;;;;;;;5069606;28;20052;-63
2024/03/07 06:43:36;;;;;;;26.33;13.75;;;;;;;;;;5064033;28;20045;-61
2024/03/07 06:46:06;;;;;;;31.20;13.40;;;;;;;;;;5059437;28;20068;-60
2024/03/07 06:48:34;;;;;;;28.15;13.70;;;;;;;;;;5058221;28;20044;-62
2024/03/07 06:51:03;;;;;;;29.13;14.43;;;;;;;;;;5037658;28;20417;-61
2024/03/07 06:53:33;;;;;;;29.83;15.25;;;;;;;;;;5044124;28;20426;-61
2024/03/07 06:56:02;;;;;;;26.98;14.45;;;;;;;;;;5045036;28;20060;-60
2024/03/07 06:58:30;;;;;;;24.90;13.35;;;;;;;;;;5048230;28;20049;-61
2024/03/07 07:01:01;;;;;;;31.60;14.82;;;;;;;;;;5045991;28;20702;-61
2024/03/07 07:03:30;;;;;;;28.08;14.02;;;;;;;;;;5047990;28;20317;-61
2024/03/07 07:05:58;;;;;;;29.35;14.88;;;;;;;;;;5047730;28;20077;-62
2024/03/07 07:08:29;;;;;;;25.65;13.73;;;;;;;;;;5046777;28;20107;-60
2024/03/07 07:10:59;;;;;;;30.00;15.35;;;;;;;;;;5046639;28;20084;-61
2024/03/07 07:13:28;;;;;;;26.42;13.48;;;;;;;;;;5047373;28;20055;-61
2024/03/07 07:15:56;;;;;;;27.98;14.50;;;;;;;;;;5046509;28;20072;-60
2024/03/07 07:18:24;;;;;;;27.30;12.98;;;;;;;;;;5047966;28;20076;-61
2024/03/07 07:20:53;;;;;;;30.00;15.18;;;;;;;;;;5043039;28;20420;-61
2024/03/07 07:23:23;;;;;;;29.33;14.02;;;;;;;;;;5048137;28;20053;-61
2024/03/07 07:25:51;;;;;;;28.70;14.25;;;;;;;;;;5048504;28;20040;-62
2024/03/07 07:28:21;;;;;;;31.27;15.07;;;;;;;;;;5047332;28;20548;-62
2024/03/07 07:30:50;;;;;;;28.23;14.40;;;;;;;;;;5066361;28;20558;-63
2024/03/07 07:33:19;;;;;;;30.58;14.40;;;;;;;;;;5062912;28;20048;-63
2024/03/07 07:35:48;;;;;;;29.75;14.45;;;;;;;;;;5064894;28;20056;-63
2024/03/07 07:38:16;;;;;;;30.02;14.40;;;;;;;;;;5067099;28;20106;-65
2024/03/07 07:40:46;;;;;;;27.23;14.40;;;;;;;;;;5053679;28;20059;-60
2024/03/07 07:43:14;;;;;;;27.30;14.48;;;;;;;;;;5045939;28;20494;-60
2024/03/07 07:45:57;;;;;;;31.30;14.45;;;;;;;;;;5051383;28;20045;-61
2024/03/07 07:48:26;;;;;;;28.15;14.82;;;;;;;;;;5053193;28;20045;-63
2024/03/07 07:50:55;;;;;;;32.92;15.20;;;;;;;;;;5061394;28;20090;-61
2024/03/07 07:53:24;;;;;;;27.15;14.10;;;;;;;;;;5063073;28;20580;-61
2024/03/07 07:55:52;;;;;;;29.15;14.00;;;;;;;;;;5063001;28;20052;-62
2024/03/07 07:58:21;;;;;;;25.10;13.52;;;;;;;;;;5069145;28;20052;-60
2024/03/07 08:00:49;;;;;;;27.90;13.73;;;;;;;;;;5070405;28;20041;-62
2024/03/07 08:03:22;;;;;;;32.83;14.85;;;;;;;;;;5068931;28;20139;-62
2024/03/07 08:05:51;;;;;;;27.38;13.40;;;;;;;;;;5066219;28;20461;-60
2024/03/07 08:08:21;;;;;;;29.80;15.35;;;;;;;;;;5066887;28;20402;-60
2024/03/07 08:10:50;;;;;;;28.83;13.40;;;;;;;;;;5051498;28;20041;-61
2024/03/07 08:13:19;;;;;;;26.77;13.88;;;;;;;;;;5050254;28;20045;-60
2024/03/07 08:15:47;;;;;;;30.02;15.05;;;;;;;;;;5041445;28;20429;-62
2024/03/07 08:18:17;;;;;;;28.58;13.40;;;;;;;;;;5051323;28;20056;-60
2024/03/07 08:20:47;;;;;;;26.13;12.82;;;;;;;;;;5034103;28;20113;-60
2024/03/07 08:23:15;;;;;;;25.42;13.98;;;;;;;;;;5051156;28;20132;-60
2024/03/07 08:25:44;;;;;;;27.00;14.68;;;;;;;;;;5051104;28;20466;-60
2024/03/07 08:28:12;;;;;;;25.67;13.48;;;;;;;;;;5050689;28;20052;-62
2024/03/07 08:30:41;;;;;;;28.52;14.63;;;;;;;;;;5070189;28;20048;-61
2024/03/07 08:33:09;;;;;;;29.55;13.80;;;;;;;;;;5068052;28;20063;-61
2024/03/07 08:35:38;;;;;;;23.40;12.52;;;;;;;;;;5071110;28;20059;-61
2024/03/07 08:38:09;;;;;;;27.48;13.40;;;;;;;;;;5067728;28;20055;-60
2024/03/07 08:40:38;;;;;;;27.48;13.80;;;;;;;;;;5070226;28;20118;-61
2024/03/07 08:43:07;;;;;;;25.85;14.15;;;;;;;;;;5067361;28;20052;-61
2024/03/07 08:45:36;;;;;;;23.55;13.23;;;;;;;;;;5070537;28;20110;-60
2024/03/07 08:48:05;;;;;;;27.75;13.63;;;;;;;;;;5071042;28;20048;-59
2024/03/07 08:50:34;;;;;;;27.63;14.40;;;;;;;;;;5070058;28;20080;-60
2024/03/07 08:53:04;;;;;;;27.90;13.98;;;;;;;;;;5062257;28;20055;-65
2024/03/07 08:55:35;;;;;;;22.98;13.23;;;;;;;;;;5070631;28;20048;-61
2024/03/07 08:58:06;;;;;;;23.52;11.98;;;;;;;;;;5068186;28;20053;-64
2024/03/07 09:00:36;;;;;;;26.42;13.07;;;;;;;;;;5065089;28;20049;-61
2024/03/07 09:03:09;;;;;;;26.60;13.73;;;;;;;;;;5069763;28;20043;-63
2024/03/07 09:05:41;;;;;;;26.17;13.00;;;;;;;;;;5068938;28;20075;-61
2024/03/07 09:08:10;;;;;;;27.67;13.02;;;;;;;;;;5066913;28;20382;-60
2024/03/07 09:10:41;;;;;;;24.90;12.38;;;;;;;;;;5069733;28;20413;-60
2024/03/07 09:13:12;;;;;;;24.95;13.57;;;;;;;;;;5070704;28;20052;-60
2024/03/07 09:15:40;;;;;;;25.90;13.40;;;;;;;;;;5069918;28;20068;-61
2024/03/07 09:18:09;;;;;;;32.50;14.35;;;;;;;;;;5068097;28;20040;-61
2024/03/07 09:20:38;;;;;;;24.77;12.80;;;;;;;;;;5069100;28;20448;-61
2024/03/07 09:23:07;;;;;;;24.25;12.35;;;;;;;;;;5066008;28;20052;-60
2024/03/07 09:25:36;;;;;;;23.65;12.80;;;;;;;;;;5073021;28;20045;-60
2024/03/07 09:28:06;;;;;;;25.00;13.80;;;;;;;;;;5069082;28;20462;-62
2024/03/07 09:30:38;;;;;;;30.17;13.68;;;;;;;;;;5069211;28;20080;-60
2024/03/07 09:33:10;;;;;;;21.88;12.88;;;;;;;;;;5070338;28;20048;-60
2024/03/07 09:35:39;;;;;;;28.23;13.00;;;;;;;;;;5070316;28;20090;-61
2024/03/07 09:38:08;;;;;;;25.05;12.60;;;;;;;;;;5060772;28;20058;-60
2024/03/07 09:40:36;;;;;;;23.15;12.15;;;;;;;;;;5069359;28;20044;-61
2024/03/07 09:43:09;;;;;;;23.27;12.68;;;;;;;;;;5069447;28;20095;-60
2024/03/07 09:45:39;;;;;;;24.88;12.93;;;;;;;;;;5069595;28;20123;-60
2024/03/07 09:48:08;;;;;;;26.00;13.43;;;;;;;;;;5066315;28;20044;-61
2024/03/07 09:50:38;;;;;;;25.55;12.90;;;;;;;;;;5067481;28;20127;-61
2024/03/07 09:53:06;;;;;;;29.17;13.95;;;;;;;;;;5065996;28;20471;-61
2024/03/07 09:55:35;;;;;;;24.38;12.38;;;;;;;;;;5068120;28;20048;-60
2024/03/07 09:58:04;;;;;;;23.90;12.55;;;;;;;;;;5070251;28;20078;-60
2024/03/07 10:00:37;;;;;;;24.33;13.30;;;;;;;;;;5068286;28;20048;-60
2024/03/07 10:03:07;;;;;;;24.23;12.55;;;;;;;;;;5066346;28;20052;-61
2024/03/07 10:05:37;;;;;;;20.63;11.20;;;;;;;;;;5066175;28;20041;-61
2024/03/07 10:08:06;;;;;;;20.48;11.52;;;;;;;;;;5066955;28;20068;-60
2024/03/07 10:10:35;;;;;;;19.35;10.77;;;;;;;;;;5069149;28;20516;-60
2024/03/07 10:13:05;;;;;;;24.30;12.13;;;;;;;;;;5068600;28;20454;-62
2024/03/07 10:15:35;;;;;;;22.58;12.18;;;;;;;;;;5069284;28;20076;-60
2024/03/07 10:18:04;;;;;;;23.30;12.02;;;;;;;;;;5067274;28;20430;-60
2024/03/07 10:20:32;;;;;;;21.42;11.98;;;;;;;;;;5065282;28;20090;-60
2024/03/07 10:23:02;;;;;;;21.70;12.38;;;;;;;;;;5062868;28;20401;-60
2024/03/07 10:25:30;;;;;;;22.58;11.88;;;;;;;;;;5069533;28;20052;-62
2024/03/07 10:28:00;;;;;;;22.95;12.50;;;;;;;;;;5065150;28;20478;-62
2024/03/07 10:30:29;;;;;;;23.63;12.43;;;;;;;;;;5065262;28;20044;-61
2024/03/07 10:32:59;;;;;;;26.42;13.55;;;;;;;;;;5068748;28;20122;-60
2024/03/07 10:35:30;;;;;;;22.48;11.90;;;;;;;;;;5068942;28;20119;-60
2024/03/07 10:38:06;;;;;;;24.45;12.85;;;;;;;;;;5066079;28;20053;-62
2024/03/07 10:40:38;;;;;;;;;;;;;;;;;;5068623;28;20076;-61
2024/03/07 10:43:09;;;;;;;26.60;11.10;;;;;;;;;;5068725;28;19952;-60
2024/03/07 10:45:40;;;;;;;22.20;12.85;;;;;;;;;;5069397;28;20133;-61
2024/03/07 10:48:13;;;;;;;26.92;13.23;;;;;;;;;;5060544;28;20448;-61
2024/03/07 10:50:45;;;;;;;22.17;12.27;;;;;;;;;;5067575;28;20137;-62
2024/03/07 10:53:17;;;;;;;28.38;11.93;;;;;;;;;;5060019;28;20064;-62
2024/03/07 10:55:54;;;;;;;21.70;11.45;;;;;;;;;;5069247;28;20075;-61
2024/03/07 10:58:28;;;;;;;20.70;11.68;;;;;;;;;;5067562;28;20493;-62
2024/03/07 11:00:58;;;;;;;20.90;11.23;;;;;;;;;;5068526;28;20040;-63
2024/03/07 11:03:28;;;;;;;22.27;11.88;;;;;;;;;;5068396;28;20051;-61
2024/03/07 11:05:57;;;;;;;19.45;11.70;;;;;;;;;;5067909;28;20102;-63
2024/03/07 11:08:27;;;;;;;20.00;11.07;;;;;;;;;;5062651;28;20099;-61
2024/03/07 11:10:55;;;;;;;21.15;11.65;;;;;;;;;;5068012;28;20558;-63
2024/03/07 11:13:27;;;;;;;19.63;10.98;;;;;;;;;;5067734;28;20489;-63
2024/03/07 11:15:58;;;;;;;19.27;9.77;;;;;;;;;;5067383;28;20513;-62
2024/03/07 11:18:28;;;;;;;20.00;10.50;;;;;;;;;;5064406;28;20503;-61
2024/03/07 11:20:57;;;;;;;20.80;10.27;;;;;;;;;;5061261;28;20480;-61
2024/03/07 11:23:28;;;;;;;19.42;9.55;;;;;;;;;;5060018;28;20048;-62
2024/03/07 11:25:58;;;;;;;21.15;11.00;;;;;;;;;;5075099;28;20384;-62
2024/03/07 11:28:31;;;;;;;17.48;10.25;;;;;;;;;;5062449;28;20048;-62
2024/03/07 11:31:10;;;;;;;20.60;9.98;;;;;;;;;;5074778;28;20113;-63
2024/03/07 11:33:41;;;;;;;22.92;11.63;;;;;;;;;;5081835;28;20134;-61
2024/03/07 11:36:11;;;;;;;20.85;11.15;;;;;;;;;;5077966;28;20408;-58
2024/03/07 11:38:41;;;;;;;18.60;10.48;;;;;;;;;;5083312;28;20044;-60
2024/03/07 11:41:13;;;;;;;20.80;11.18;;;;;;;;;;5089794;28;20043;-59
2024/03/07 11:43:43;;;;;;;18.95;9.68;;;;;;;;;;5075548;28;20040;-59
2024/03/07 11:46:16;;;;;;;19.60;10.70;;;;;;;;;;5066354;28;20040;-58
2024/03/07 11:48:47;;;;;;;22.52;11.35;;;;;;;;;;5077502;28;20056;-59
2024/03/07 11:51:21;;;;;;;21.83;11.15;;;;;;;;;;5071336;28;20194;-60
2024/03/07 11:53:51;;;;;;;20.85;10.68;;;;;;;;;;5081972;28;20055;-58
2024/03/07 11:56:20;;;;;;;24.60;11.23;;;;;;;;;;5086723;28;20044;-62
2024/03/07 11:58:54;;;;;;;20.73;10.80;;;;;;;;;;5075217;28;20040;-62
2024/03/07 12:01:25;;;;;;;25.27;11.32;;;;;;;;;;5074103;28;20051;-61
2024/03/07 12:03:56;;;;;;;20.65;10.07;;;;;;;;;;5076294;28;20047;-61
2024/03/07 12:06:25;;;;;;;23.10;12.75;;;;;;;;;;5075145;28;20748;-60
2024/03/07 12:08:53;;;;;;;21.70;11.52;;;;;;;;;;5079876;28;20481;-60
2024/03/07 12:11:25;;;;;;;23.42;11.15;;;;;;;;;;5080263;28;20071;-60
2024/03/07 12:13:55;;;;;;;19.95;11.05;;;;;;;;;;5071611;28;20493;-61
2024/03/07 12:16:24;;;;;;;21.75;11.30;;;;;;;;;;5069659;28;20052;-59
2024/03/07 12:18:59;;;;;;;19.92;10.82;;;;;;;;;;5071141;28;20413;-59
2024/03/07 12:21:28;;;;;;;19.23;10.38;;;;;;;;;;5069355;28;20044;-59
2024/03/07 12:23:56;;;;;;;21.20;10.63;;;;;;;;;;5073466;28;20047;-61
2024/03/07 12:26:25;;;;;;;23.85;11.98;;;;;;;;;;5069589;28;20490;-59
2024/03/07 12:28:54;;;;;;;21.55;12.10;;;;;;;;;;5071341;28;20040;-62
2024/03/07 12:31:24;;;;;;;19.63;10.02;;;;;;;;;;5069958;28;20048;-58
2024/03/07 12:33:53;;;;;;;21.30;10.43;;;;;;;;;;5070252;28;20048;-62
2024/03/07 12:36:34;;;;;;;24.27;11.43;;;;;;;;;;5064441;28;20402;-60
2024/03/07 12:39:24;;;;;;;22.67;12.05;;;;;;;;;;5058625;28;20495;-60
2024/03/07 12:41:54;;;;;;;19.30;10.35;;;;;;;;;;5066702;28;20063;-59
2024/03/07 12:44:22;;;;;;;20.92;10.75;;;;;;;;;;5058233;28;20119;-62
2024/03/07 12:46:55;;;;;;;19.60;11.20;;;;;;;;;;5069054;28;20048;-60
2024/03/07 12:49:26;;;;;;;22.48;11.30;;;;;;;;;;5069997;28;20043;-59
2024/03/07 12:51:56;;;;;;;19.08;10.73;;;;;;;;;;5068033;28;20041;-61
2024/03/07 12:54:27;;;;;;;20.98;10.93;;;;;;;;;;5069689;28;20052;-62
2024/03/07 12:56:56;;;;;;;19.92;10.73;;;;;;;;;;5070845;28;20045;-62
2024/03/07 12:59:24;;;;;;;21.27;11.15;;;;;;;;;;5065923;28;20044;-60
2024/03/07 13:01:54;;;;;;;20.55;11.00;;;;;;;;;;5061374;28;20045;-59
2024/03/07 13:04:25;;;;;;;20.83;10.57;;;;;;;;;;5066957;28;20059;-58
2024/03/07 13:06:54;;;;;;;20.50;10.27;;;;;;;;;;5068508;28;20483;-61
2024/03/07 13:09:26;;;;;;;22.05;10.50;;;;;;;;;;5063964;28;20541;-60
2024/03/07 13:11:55;;;;;;;17.58;9.60;;;;;;;;;;5063290;28;20044;-61
2024/03/07 13:14:24;;;;;;;21.77;10.63;;;;;;;;;;5067520;28;20551;-59
2024/03/07 13:16:52;;;;;;;16.75;9.77;;;;;;;;;;5069456;28;20123;-62
2024/03/07 13:19:21;;;;;;;21.10;10.50;;;;;;;;;;5066796;28;20098;-61
2024/03/07 13:21:49;;;;;;;20.67;10.88;;;;;;;;;;5064311;28;20084;-60
2024/03/07 13:24:18;;;;;;;19.08;10.73;;;;;;;;;;5065406;28;20279;-62
2024/03/07 13:26:48;;;;;;;20.00;10.27;;;;;;;;;;5063703;28;20048;-60
2024/03/07 13:29:16;;;;;;;18.98;10.30;;;;;;;;;;5067275;28;20500;-58
2024/03/07 13:31:46;;;;;;;18.75;10.55;;;;;;;;;;5068361;28;20055;-62
2024/03/07 13:34:14;;;;;;;21.38;9.77;;;;;;;;;;5065593;28;20063;-62
2024/03/07 13:36:43;;;;;;;15.40;9.32;;;;;;;;;;5065231;28;20044;-62
2024/03/07 13:39:11;;;;;;;18.52;9.80;;;;;;;;;;5067174;28;20148;-58
2024/03/07 13:41:40;;;;;;;19.50;10.48;;;;;;;;;;5068534;28;20060;-59
2024/03/07 13:44:10;;;;;;;18.75;9.32;;;;;;;;;;5068486;28;20120;-60
2024/03/07 13:46:39;;;;;;;19.27;10.77;;;;;;;;;;5066058;28;20090;-62
2024/03/07 13:49:12;;;;;;;23.30;10.75;;;;;;;;;;5065450;28;20048;-60
2024/03/07 13:51:49;;;;;;;19.00;10.15;;;;;;;;;;5064771;28;20147;-59
2024/03/07 13:54:32;;;;;;;18.45;10.40;;;;;;;;;;5067536;28;20059;-60
2024/03/07 13:57:10;;;;;;;19.50;10.30;;;;;;;;;;5066887;28;20067;-62
2024/03/07 13:59:56;;;;;;;19.58;10.88;;;;;;;;;;5062327;28;20045;-61
2024/03/07 14:02:42;;;;;;;21.27;10.80;;;;;;;;;;5066150;28;20055;-59
2024/03/07 14:05:29;;;;;;;21.10;10.88;;;;;;;;;;5035904;28;20052;-59
2024/03/07 14:08:13;;;;;;;23.15;12.30;;;;;;;;;;5064783;28;20055;-59
2024/03/07 14:11:00;;;;;;;22.50;11.10;;;;;;;;;;5046850;28;20056;-59
2024/03/07 14:13:40;;;;;;;18.00;9.50;;;;;;;;;;5048062;28;20227;-60
2024/03/07 14:16:23;;;;;;;21.65;11.27;;;;;;;;;;5042675;28;20495;-60
2024/03/07 14:19:25;;;;;;;19.50;10.65;;;;;;;;;;5049921;28;20052;-61
2024/03/07 14:22:00;;;;;;;21.80;10.68;;;;;;;;;;4973578;28;20047;-61
2024/03/07 14:24:38;;;;;;;19.83;10.07;;;;;;;;;;4984775;28;20069;-61
2024/03/07 14:27:28;;;;;;;21.27;10.27;;;;;;;;;;5013175;28;20403;-59
2024/03/07 14:30:07;;;;;;;21.38;10.65;;;;;;;;;;5060703;28;20102;-60
2024/03/07 14:32:38;;;;;;;22.05;11.25;;;;;;;;;;5067154;28;20566;-63
2024/03/07 14:35:13;;;;;;;19.23;10.95;;;;;;;;;;5065269;28;20047;-59
2024/03/07 14:37:50;;;;;;;22.40;11.50;;;;;;;;;;5060612;28;20047;-59